sensor_id;sensor_type;location;lat;lon;timestamp;P1;durP1;ratioP1;P2;durP2;ratioP2
27161;SDS011;54464;50.558;9.704;2023-09-08T00:01:37;9.20;;;7.23;;
27161;SDS011;54464;50.558;9.704;2023-09-08T00:04:02;8.90;;;7.37;;
27161;SDS011;54464;50.558;9.704;2023-09-08T00:06:29;8.93;;;7.63;;
27161;SDS011;54464;50.558;9.704;2023-09-08T00:08:54;10.00;;;7.43;;
27161;SDS011;54464;50.558;9.704;2023-09-08T00:11:20;9.17;;;7.73;;
27161;SDS011;54464;50.558;9.704;2023-09-08T00:13:45;9.17;;;7.40;;
27161;SDS011;54464;50.558;9.704;2023-09-08T00:16:11;11.17;;;8.00;;
27161;SDS011;54464;50.558;9.704;2023-09-08T00:18:36;8.77;;;7.47;;
27161;SDS011;54464;50.558;9.704;2023-09-08T00:21:02;9.80;;;8.07;;
27161;SDS011;54464;50.558;9.704;2023-09-08T00:23:28;10.80;;;7.70;;
27161;SDS011;54464;50.558;9.704;2023-09-08T00:25:53;11.73;;;9.43;;
27161;SDS011;54464;50.558;9.704;2023-09-08T00:28:19;9.57;;;7.90;;
27161;SDS011;54464;50.558;9.704;2023-09-08T00:30:44;9.17;;;7.60;;
27161;SDS011;54464;50.558;9.704;2023-09-08T00:33:10;8.10;;;7.13;;
27161;SDS011;54464;50.558;9.704;2023-09-08T00:35:37;8.70;;;7.40;;
27161;SDS011;54464;50.558;9.704;2023-09-08T00:38:03;8.33;;;7.43;;
27161;SDS011;54464;50.558;9.704;2023-09-08T00:40:29;8.60;;;6.83;;
27161;SDS011;54464;50.558;9.704;2023-09-08T00:42:54;7.87;;;7.17;;
27161;SDS011;54464;50.558;9.704;2023-09-08T00:45:20;7.80;;;6.50;;
27161;SDS011;54464;50.558;9.704;2023-09-08T00:47:46;9.53;;;6.73;;
27161;SDS011;54464;50.558;9.704;2023-09-08T00:50:11;6.60;;;6.00;;
27161;SDS011;54464;50.558;9.704;2023-09-08T00:52:37;7.93;;;6.70;;
27161;SDS011;54464;50.558;9.704;2023-09-08T00:55:03;8.27;;;6.37;;
27161;SDS011;54464;50.558;9.704;2023-09-08T00:57:29;7.30;;;6.20;;
27161;SDS011;54464;50.558;9.704;2023-09-08T00:59:56;6.40;;;5.80;;
27161;SDS011;54464;50.558;9.704;2023-09-08T01:02:23;6.97;;;6.00;;
27161;SDS011;54464;50.558;9.704;2023-09-08T01:04:48;6.60;;;5.70;;
27161;SDS011;54464;50.558;9.704;2023-09-08T01:07:15;6.90;;;6.20;;
27161;SDS011;54464;50.558;9.704;2023-09-08T01:09:41;6.43;;;5.73;;
27161;SDS011;54464;50.558;9.704;2023-09-08T01:12:07;7.70;;;6.20;;
27161;SDS011;54464;50.558;9.704;2023-09-08T01:14:33;7.67;;;6.30;;
27161;SDS011;54464;50.558;9.704;2023-09-08T01:16:58;9.53;;;6.47;;
27161;SDS011;54464;50.558;9.704;2023-09-08T01:19:24;7.13;;;6.20;;
27161;SDS011;54464;50.558;9.704;2023-09-08T01:27:08;8.73;;;6.13;;
27161;SDS011;54464;50.558;9.704;2023-09-08T01:29:37;7.93;;;5.80;;
27161;SDS011;54464;50.558;9.704;2023-09-08T01:32:04;8.23;;;6.33;;
27161;SDS011;54464;50.558;9.704;2023-09-08T01:34:31;6.17;;;5.57;;
27161;SDS011;54464;50.558;9.704;2023-09-08T01:36:56;7.53;;;6.57;;
27161;SDS011;54464;50.558;9.704;2023-09-08T01:39:22;8.03;;;6.50;;
27161;SDS011;54464;50.558;9.704;2023-09-08T01:41:47;6.20;;;5.60;;
27161;SDS011;54464;50.558;9.704;2023-09-08T01:44:13;6.90;;;6.20;;
27161;SDS011;54464;50.558;9.704;2023-09-08T01:46:39;6.90;;;6.03;;
27161;SDS011;54464;50.558;9.704;2023-09-08T01:49:06;7.00;;;6.30;;
27161;SDS011;54464;50.558;9.704;2023-09-08T01:51:31;6.60;;;6.00;;
27161;SDS011;54464;50.558;9.704;2023-09-08T01:53:57;6.87;;;6.17;;
27161;SDS011;54464;50.558;9.704;2023-09-08T01:56:22;8.23;;;6.63;;
27161;SDS011;54464;50.558;9.704;2023-09-08T01:58:48;7.40;;;6.57;;
27161;SDS011;54464;50.558;9.704;2023-09-08T02:01:13;7.40;;;6.70;;
27161;SDS011;54464;50.558;9.704;2023-09-08T02:03:39;8.17;;;6.57;;
27161;SDS011;54464;50.558;9.704;2023-09-08T02:06:04;7.53;;;6.30;;
27161;SDS011;54464;50.558;9.704;2023-09-08T02:08:30;6.77;;;6.13;;
27161;SDS011;54464;50.558;9.704;2023-09-08T02:10:56;7.33;;;6.13;;
27161;SDS011;54464;50.558;9.704;2023-09-08T02:13:21;6.90;;;6.20;;
27161;SDS011;54464;50.558;9.704;2023-09-08T02:15:47;9.23;;;6.53;;
27161;SDS011;54464;50.558;9.704;2023-09-08T02:18:12;7.00;;;6.13;;
27161;SDS011;54464;50.558;9.704;2023-09-08T02:20:39;7.40;;;6.63;;
27161;SDS011;54464;50.558;9.704;2023-09-08T02:23:05;9.73;;;6.90;;
27161;SDS011;54464;50.558;9.704;2023-09-08T02:25:32;8.43;;;6.70;;
27161;SDS011;54464;50.558;9.704;2023-09-08T02:27:57;8.50;;;6.63;;
27161;SDS011;54464;50.558;9.704;2023-09-08T02:30:23;8.70;;;7.10;;
27161;SDS011;54464;50.558;9.704;2023-09-08T02:32:48;7.37;;;6.67;;
27161;SDS011;54464;50.558;9.704;2023-09-08T02:35:14;7.70;;;6.93;;
27161;SDS011;54464;50.558;9.704;2023-09-08T02:37:39;8.13;;;6.53;;
27161;SDS011;54464;50.558;9.704;2023-09-08T02:40:06;9.67;;;6.47;;
27161;SDS011;54464;50.558;9.704;2023-09-08T02:42:32;6.87;;;6.17;;
27161;SDS011;54464;50.558;9.704;2023-09-08T02:44:58;7.80;;;6.27;;
27161;SDS011;54464;50.558;9.704;2023-09-08T02:47:23;8.83;;;6.17;;
27161;SDS011;54464;50.558;9.704;2023-09-08T02:49:49;7.27;;;6.57;;
27161;SDS011;54464;50.558;9.704;2023-09-08T02:52:14;8.70;;;6.17;;
27161;SDS011;54464;50.558;9.704;2023-09-08T02:54:40;6.53;;;5.87;;
27161;SDS011;54464;50.558;9.704;2023-09-08T02:57:05;8.47;;;6.40;;
27161;SDS011;54464;50.558;9.704;2023-09-08T02:59:31;7.70;;;6.30;;
27161;SDS011;54464;50.558;9.704;2023-09-08T03:01:57;7.97;;;6.60;;
27161;SDS011;54464;50.558;9.704;2023-09-08T03:04:23;8.77;;;6.57;;
27161;SDS011;54464;50.558;9.704;2023-09-08T03:06:49;7.80;;;7.00;;
27161;SDS011;54464;50.558;9.704;2023-09-08T03:09:15;7.57;;;6.73;;
27161;SDS011;54464;50.558;9.704;2023-09-08T03:11:40;8.37;;;6.73;;
27161;SDS011;54464;50.558;9.704;2023-09-08T03:14:06;7.23;;;6.53;;
27161;SDS011;54464;50.558;9.704;2023-09-08T03:16:31;8.27;;;6.00;;
27161;SDS011;54464;50.558;9.704;2023-09-08T03:18:57;7.03;;;6.23;;
27161;SDS011;54464;50.558;9.704;2023-09-08T03:21:23;7.93;;;6.10;;
27161;SDS011;54464;50.558;9.704;2023-09-08T03:23:49;9.47;;;6.43;;
27161;SDS011;54464;50.558;9.704;2023-09-08T03:26:14;7.30;;;5.90;;
27161;SDS011;54464;50.558;9.704;2023-09-08T03:28:41;6.63;;;5.93;;
27161;SDS011;54464;50.558;9.704;2023-09-08T03:31:07;6.47;;;5.70;;
27161;SDS011;54464;50.558;9.704;2023-09-08T03:33:33;9.10;;;6.70;;
27161;SDS011;54464;50.558;9.704;2023-09-08T03:35:59;6.50;;;5.60;;
27161;SDS011;54464;50.558;9.704;2023-09-08T03:38:24;7.43;;;6.63;;
27161;SDS011;54464;50.558;9.704;2023-09-08T03:40:50;7.97;;;6.23;;
27161;SDS011;54464;50.558;9.704;2023-09-08T03:43:15;6.90;;;6.20;;
27161;SDS011;54464;50.558;9.704;2023-09-08T03:45:41;8.27;;;6.43;;
27161;SDS011;54464;50.558;9.704;2023-09-08T03:48:07;7.00;;;6.30;;
27161;SDS011;54464;50.558;9.704;2023-09-08T03:50:33;8.57;;;6.03;;
27161;SDS011;54464;50.558;9.704;2023-09-08T03:52:59;8.50;;;6.03;;
27161;SDS011;54464;50.558;9.704;2023-09-08T03:55:24;8.57;;;6.37;;
27161;SDS011;54464;50.558;9.704;2023-09-08T03:57:50;8.40;;;6.13;;
27161;SDS011;54464;50.558;9.704;2023-09-08T04:00:16;9.50;;;6.17;;
27161;SDS011;54464;50.558;9.704;2023-09-08T04:02:44;9.00;;;5.83;;
27161;SDS011;54464;50.558;9.704;2023-09-08T04:05:10;6.40;;;5.67;;
27161;SDS011;54464;50.558;9.704;2023-09-08T04:07:38;6.43;;;5.80;;
27161;SDS011;54464;50.558;9.704;2023-09-08T04:10:04;7.60;;;5.93;;
27161;SDS011;54464;50.558;9.704;2023-09-08T04:12:30;7.43;;;6.47;;
27161;SDS011;54464;50.558;9.704;2023-09-08T04:14:56;10.00;;;7.17;;
27161;SDS011;54464;50.558;9.704;2023-09-08T04:17:21;7.30;;;5.97;;
27161;SDS011;54464;50.558;9.704;2023-09-08T04:19:47;6.80;;;5.87;;
27161;SDS011;54464;50.558;9.704;2023-09-08T04:22:13;7.17;;;5.97;;
27161;SDS011;54464;50.558;9.704;2023-09-08T04:24:38;7.17;;;6.00;;
27161;SDS011;54464;50.558;9.704;2023-09-08T04:27:04;7.17;;;5.43;;
27161;SDS011;54464;50.558;9.704;2023-09-08T04:29:29;6.53;;;5.53;;
27161;SDS011;54464;50.558;9.704;2023-09-08T04:31:55;7.47;;;5.90;;
27161;SDS011;54464;50.558;9.704;2023-09-08T04:34:20;6.83;;;5.53;;
27161;SDS011;54464;50.558;9.704;2023-09-08T04:36:46;8.03;;;6.00;;
27161;SDS011;54464;50.558;9.704;2023-09-08T04:39:12;8.30;;;6.13;;
27161;SDS011;54464;50.558;9.704;2023-09-08T04:41:40;8.23;;;5.90;;
27161;SDS011;54464;50.558;9.704;2023-09-08T04:44:05;7.33;;;5.50;;
27161;SDS011;54464;50.558;9.704;2023-09-08T04:46:31;5.80;;;5.20;;
27161;SDS011;54464;50.558;9.704;2023-09-08T04:48:56;6.60;;;5.70;;
27161;SDS011;54464;50.558;9.704;2023-09-08T04:51:22;7.50;;;5.50;;
27161;SDS011;54464;50.558;9.704;2023-09-08T04:53:48;7.90;;;6.00;;
27161;SDS011;54464;50.558;9.704;2023-09-08T04:56:13;9.53;;;6.40;;
27161;SDS011;54464;50.558;9.704;2023-09-08T04:58:39;7.30;;;6.13;;
27161;SDS011;54464;50.558;9.704;2023-09-08T05:01:04;7.57;;;5.97;;
27161;SDS011;54464;50.558;9.704;2023-09-08T05:03:30;7.43;;;5.93;;
27161;SDS011;54464;50.558;9.704;2023-09-08T05:05:57;7.67;;;5.97;;
27161;SDS011;54464;50.558;9.704;2023-09-08T05:08:24;8.53;;;6.43;;
27161;SDS011;54464;50.558;9.704;2023-09-08T05:10:50;8.60;;;6.63;;
27161;SDS011;54464;50.558;9.704;2023-09-08T05:13:16;7.33;;;6.53;;
27161;SDS011;54464;50.558;9.704;2023-09-08T05:15:43;8.40;;;5.90;;
27161;SDS011;54464;50.558;9.704;2023-09-08T05:18:13;7.70;;;6.13;;
27161;SDS011;54464;50.558;9.704;2023-09-08T05:20:39;8.53;;;6.40;;
27161;SDS011;54464;50.558;9.704;2023-09-08T05:23:05;6.93;;;5.60;;
27161;SDS011;54464;50.558;9.704;2023-09-08T05:25:30;6.57;;;5.83;;
27161;SDS011;54464;50.558;9.704;2023-09-08T05:27:56;9.20;;;6.80;;
27161;SDS011;54464;50.558;9.704;2023-09-08T05:30:22;7.57;;;6.33;;
27161;SDS011;54464;50.558;9.704;2023-09-08T05:32:47;8.70;;;6.57;;
27161;SDS011;54464;50.558;9.704;2023-09-08T05:35:13;9.03;;;6.70;;
27161;SDS011;54464;50.558;9.704;2023-09-08T05:37:39;8.33;;;6.50;;
27161;SDS011;54464;50.558;9.704;2023-09-08T05:40:04;11.47;;;7.30;;
27161;SDS011;54464;50.558;9.704;2023-09-08T05:42:31;9.53;;;8.10;;
27161;SDS011;54464;50.558;9.704;2023-09-08T05:44:57;9.83;;;8.40;;
27161;SDS011;54464;50.558;9.704;2023-09-08T05:47:22;8.67;;;7.33;;
27161;SDS011;54464;50.558;9.704;2023-09-08T05:49:48;8.43;;;6.80;;
27161;SDS011;54464;50.558;9.704;2023-09-08T05:52:13;10.83;;;7.53;;
27161;SDS011;54464;50.558;9.704;2023-09-08T05:54:39;8.90;;;7.30;;
27161;SDS011;54464;50.558;9.704;2023-09-08T05:57:05;8.90;;;7.33;;
27161;SDS011;54464;50.558;9.704;2023-09-08T05:59:31;9.00;;;7.60;;
27161;SDS011;54464;50.558;9.704;2023-09-08T06:01:56;9.30;;;7.90;;
27161;SDS011;54464;50.558;9.704;2023-09-08T06:04:22;9.80;;;7.83;;
27161;SDS011;54464;50.558;9.704;2023-09-08T06:06:47;12.87;;;8.60;;
27161;SDS011;54464;50.558;9.704;2023-09-08T06:09:13;10.33;;;9.23;;
27161;SDS011;54464;50.558;9.704;2023-09-08T06:11:40;11.80;;;9.17;;
27161;SDS011;54464;50.558;9.704;2023-09-08T06:14:06;11.50;;;8.43;;
27161;SDS011;54464;50.558;9.704;2023-09-08T06:16:31;10.63;;;8.13;;
27161;SDS011;54464;50.558;9.704;2023-09-08T06:18:57;9.07;;;7.77;;
27161;SDS011;54464;50.558;9.704;2023-09-08T06:21:23;11.17;;;8.37;;
27161;SDS011;54464;50.558;9.704;2023-09-08T06:23:48;10.67;;;8.37;;
27161;SDS011;54464;50.558;9.704;2023-09-08T06:26:14;14.00;;;8.73;;
27161;SDS011;54464;50.558;9.704;2023-09-08T06:28:39;9.63;;;8.60;;
27161;SDS011;54464;50.558;9.704;2023-09-08T06:31:08;11.13;;;9.10;;
27161;SDS011;54464;50.558;9.704;2023-09-08T06:33:33;10.47;;;8.87;;
27161;SDS011;54464;50.558;9.704;2023-09-08T06:35:59;11.20;;;8.87;;
27161;SDS011;54464;50.558;9.704;2023-09-08T06:38:25;13.20;;;9.50;;
27161;SDS011;54464;50.558;9.704;2023-09-08T06:40:50;13.57;;;9.97;;
27161;SDS011;54464;50.558;9.704;2023-09-08T06:43:18;10.97;;;9.23;;
27161;SDS011;54464;50.558;9.704;2023-09-08T06:45:46;12.40;;;9.90;;
27161;SDS011;54464;50.558;9.704;2023-09-08T06:48:15;13.70;;;10.33;;
27161;SDS011;54464;50.558;9.704;2023-09-08T07:17:47;12.33;;;9.37;;
27161;SDS011;54464;50.558;9.704;2023-09-08T07:20:13;14.33;;;9.67;;
27161;SDS011;54464;50.558;9.704;2023-09-08T07:22:38;13.03;;;9.77;;
27161;SDS011;54464;50.558;9.704;2023-09-08T07:25:04;11.20;;;9.23;;
27161;SDS011;54464;50.558;9.704;2023-09-08T07:27:30;11.27;;;9.70;;
27161;SDS011;54464;50.558;9.704;2023-09-08T07:29:56;13.97;;;9.10;;
27161;SDS011;54464;50.558;9.704;2023-09-08T07:32:21;12.43;;;9.97;;
27161;SDS011;54464;50.558;9.704;2023-09-08T07:34:48;15.53;;;10.67;;
27161;SDS011;54464;50.558;9.704;2023-09-08T07:37:19;11.93;;;9.77;;
27161;SDS011;54464;50.558;9.704;2023-09-08T07:39:46;12.50;;;9.90;;
27161;SDS011;54464;50.558;9.704;2023-09-08T07:42:12;12.07;;;10.07;;
27161;SDS011;54464;50.558;9.704;2023-09-08T07:44:38;13.90;;;10.23;;
27161;SDS011;54464;50.558;9.704;2023-09-08T07:47:03;13.53;;;10.47;;
27161;SDS011;54464;50.558;9.704;2023-09-08T07:49:29;12.80;;;10.17;;
27161;SDS011;54464;50.558;9.704;2023-09-08T07:51:54;15.40;;;10.40;;
27161;SDS011;54464;50.558;9.704;2023-09-08T07:54:20;13.40;;;10.03;;
27161;SDS011;54464;50.558;9.704;2023-09-08T07:56:46;13.17;;;10.30;;
27161;SDS011;54464;50.558;9.704;2023-09-08T07:59:12;12.03;;;10.27;;
27161;SDS011;54464;50.558;9.704;2023-09-08T08:01:37;11.60;;;9.87;;
27161;SDS011;54464;50.558;9.704;2023-09-08T08:04:03;13.00;;;10.20;;
27161;SDS011;54464;50.558;9.704;2023-09-08T08:06:29;13.43;;;9.93;;
27161;SDS011;54464;50.558;9.704;2023-09-08T08:08:55;14.17;;;10.17;;
27161;SDS011;54464;50.558;9.704;2023-09-08T08:11:21;14.53;;;10.13;;
27161;SDS011;54464;50.558;9.704;2023-09-08T08:13:47;12.73;;;9.80;;
27161;SDS011;54464;50.558;9.704;2023-09-08T08:16:12;13.87;;;9.70;;
27161;SDS011;54464;50.558;9.704;2023-09-08T08:18:38;11.57;;;9.57;;
27161;SDS011;54464;50.558;9.704;2023-09-08T08:21:04;11.93;;;9.40;;
27161;SDS011;54464;50.558;9.704;2023-09-08T08:23:29;12.93;;;9.33;;
27161;SDS011;54464;50.558;9.704;2023-09-08T08:25:56;11.50;;;9.43;;
27161;SDS011;54464;50.558;9.704;2023-09-08T08:28:22;10.00;;;8.87;;
27161;SDS011;54464;50.558;9.704;2023-09-08T08:30:49;14.63;;;10.30;;
27161;SDS011;54464;50.558;9.704;2023-09-08T08:33:15;10.80;;;9.10;;
27161;SDS011;54464;50.558;9.704;2023-09-08T08:35:40;12.07;;;9.98;;
27161;SDS011;54464;50.558;9.704;2023-09-08T08:38:06;13.67;;;9.60;;
27161;SDS011;54464;50.558;9.704;2023-09-08T08:40:32;12.45;;;9.48;;
27161;SDS011;54464;50.558;9.704;2023-09-08T08:42:59;11.63;;;9.80;;
27161;SDS011;54464;50.558;9.704;2023-09-08T08:45:25;14.63;;;9.93;;
27161;SDS011;54464;50.558;9.704;2023-09-08T08:47:52;12.30;;;10.00;;
27161;SDS011;54464;50.558;9.704;2023-09-08T08:50:18;11.32;;;10.07;;
27161;SDS011;54464;50.558;9.704;2023-09-08T08:52:45;12.38;;;10.40;;
27161;SDS011;54464;50.558;9.704;2023-09-08T08:55:11;13.52;;;9.70;;
27161;SDS011;54464;50.558;9.704;2023-09-08T08:57:37;12.98;;;9.80;;
27161;SDS011;54464;50.558;9.704;2023-09-08T09:00:07;13.20;;;9.00;;
27161;SDS011;54464;50.558;9.704;2023-09-08T09:02:40;11.60;;;9.63;;
27161;SDS011;54464;50.558;9.704;2023-09-08T09:05:08;9.43;;;8.23;;
27161;SDS011;54464;50.558;9.704;2023-09-08T09:07:41;10.07;;;7.82;;
27161;SDS011;54464;50.558;9.704;2023-09-08T09:10:07;9.43;;;7.15;;
27161;SDS011;54464;50.558;9.704;2023-09-08T09:12:33;8.43;;;6.97;;
27161;SDS011;54464;50.558;9.704;2023-09-08T09:15:04;9.20;;;6.90;;
27161;SDS011;54464;50.558;9.704;2023-09-08T09:17:34;9.02;;;7.35;;
27161;SDS011;54464;50.558;9.704;2023-09-08T09:20:18;8.50;;;7.03;;
27161;SDS011;54464;50.558;9.704;2023-09-08T09:22:45;8.70;;;7.32;;
27161;SDS011;54464;50.558;9.704;2023-09-08T09:25:21;9.50;;;6.63;;
27161;SDS011;54464;50.558;9.704;2023-09-08T09:27:52;6.22;;;5.63;;
27161;SDS011;54464;50.558;9.704;2023-09-08T09:30:28;7.00;;;5.25;;
27161;SDS011;54464;50.558;9.704;2023-09-08T09:33:12;9.60;;;5.80;;
27161;SDS011;54464;50.558;9.704;2023-09-08T09:35:51;7.43;;;5.38;;
27161;SDS011;54464;50.558;9.704;2023-09-08T09:38:18;5.43;;;4.90;;
27161;SDS011;54464;50.558;9.704;2023-09-08T09:40:45;6.05;;;5.43;;
27161;SDS011;54464;50.558;9.704;2023-09-08T09:43:12;6.18;;;5.55;;
27161;SDS011;54464;50.558;9.704;2023-09-08T09:45:39;7.53;;;5.43;;
27161;SDS011;54464;50.558;9.704;2023-09-08T09:48:06;6.18;;;5.57;;
27161;SDS011;54464;50.558;9.704;2023-09-08T09:50:34;6.40;;;5.22;;
27161;SDS011;54464;50.558;9.704;2023-09-08T09:53:03;5.43;;;4.93;;
27161;SDS011;54464;50.558;9.704;2023-09-08T09:55:36;7.22;;;5.10;;
27161;SDS011;54464;50.558;9.704;2023-09-08T09:58:06;6.32;;;4.70;;
27161;SDS011;54464;50.558;9.704;2023-09-08T10:00:33;4.47;;;4.07;;
27161;SDS011;54464;50.558;9.704;2023-09-08T10:03:00;4.47;;;4.07;;
27161;SDS011;54464;50.558;9.704;2023-09-08T10:05:26;5.40;;;4.82;;
27161;SDS011;54464;50.558;9.704;2023-09-08T10:07:52;5.63;;;4.53;;
27161;SDS011;54464;50.558;9.704;2023-09-08T10:10:19;4.63;;;4.22;;
27161;SDS011;54464;50.558;9.704;2023-09-08T10:12:49;4.93;;;4.43;;
27161;SDS011;54464;50.558;9.704;2023-09-08T10:15:19;5.22;;;4.65;;
27161;SDS011;54464;50.558;9.704;2023-09-08T10:17:47;6.32;;;4.90;;
27161;SDS011;54464;50.558;9.704;2023-09-08T10:20:22;4.90;;;4.40;;
27161;SDS011;54464;50.558;9.704;2023-09-08T10:22:50;5.75;;;4.57;;
27161;SDS011;54464;50.558;9.704;2023-09-08T10:25:21;5.82;;;4.82;;
27161;SDS011;54464;50.558;9.704;2023-09-08T10:27:49;5.63;;;5.00;;
27161;SDS011;54464;50.558;9.704;2023-09-08T10:30:15;5.25;;;4.70;;
27161;SDS011;54464;50.558;9.704;2023-09-08T10:32:42;7.07;;;4.70;;
27161;SDS011;54464;50.558;9.704;2023-09-08T10:35:08;5.55;;;4.65;;
27161;SDS011;54464;50.558;9.704;2023-09-08T10:37:34;6.80;;;5.00;;
27161;SDS011;54464;50.558;9.704;2023-09-08T10:43:08;5.03;;;4.50;;
27161;SDS011;54464;50.558;9.704;2023-09-08T10:45:34;4.75;;;4.20;;
27161;SDS011;54464;50.558;9.704;2023-09-08T10:48:00;6.95;;;4.25;;
27161;SDS011;54464;50.558;9.704;2023-09-08T10:50:27;6.10;;;4.75;;
27161;SDS011;54464;50.558;9.704;2023-09-08T10:53:18;5.20;;;4.10;;
27161;SDS011;54464;50.558;9.704;2023-09-08T10:55:44;4.57;;;4.05;;
27161;SDS011;54464;50.558;9.704;2023-09-08T11:01:16;5.03;;;4.13;;
27161;SDS011;54464;50.558;9.704;2023-09-08T11:03:43;4.72;;;4.32;;
27161;SDS011;54464;50.558;9.704;2023-09-08T11:06:12;4.80;;;4.20;;
27161;SDS011;54464;50.558;9.704;2023-09-08T11:08:43;6.65;;;3.92;;
27161;SDS011;54464;50.558;9.704;2023-09-08T11:11:15;5.43;;;4.25;;
27161;SDS011;54464;50.558;9.704;2023-09-08T11:13:41;6.65;;;4.32;;
27161;SDS011;54464;50.558;9.704;2023-09-08T11:16:10;4.72;;;4.30;;
27161;SDS011;54464;50.558;9.704;2023-09-08T11:18:36;4.70;;;4.20;;
27161;SDS011;54464;50.558;9.704;2023-09-08T11:21:02;4.93;;;4.43;;
27161;SDS011;54464;50.558;9.704;2023-09-08T11:23:32;3.95;;;3.60;;
27161;SDS011;54464;50.558;9.704;2023-09-08T11:25:58;4.90;;;4.15;;
27161;SDS011;54464;50.558;9.704;2023-09-08T11:28:25;3.85;;;3.55;;
27161;SDS011;54464;50.558;9.704;2023-09-08T11:30:52;5.07;;;4.10;;
27161;SDS011;54464;50.558;9.704;2023-09-08T11:33:20;4.10;;;3.70;;
27161;SDS011;54464;50.558;9.704;2023-09-08T11:35:50;4.28;;;3.60;;
27161;SDS011;54464;50.558;9.704;2023-09-08T11:38:28;3.92;;;3.55;;
27161;SDS011;54464;50.558;9.704;2023-09-08T11:40:55;4.18;;;3.63;;
27161;SDS011;54464;50.558;9.704;2023-09-08T11:43:22;4.20;;;3.60;;
27161;SDS011;54464;50.558;9.704;2023-09-08T11:45:50;4.07;;;3.70;;
27161;SDS011;54464;50.558;9.704;2023-09-08T11:48:15;4.75;;;3.92;;
27161;SDS011;54464;50.558;9.704;2023-09-08T11:50:41;4.88;;;3.78;;
27161;SDS011;54464;50.558;9.704;2023-09-08T11:53:08;3.83;;;3.42;;
27161;SDS011;54464;50.558;9.704;2023-09-08T11:55:34;4.35;;;3.83;;
27161;SDS011;54464;50.558;9.704;2023-09-08T11:58:01;3.70;;;3.40;;
27161;SDS011;54464;50.558;9.704;2023-09-08T12:00:27;5.18;;;3.40;;
27161;SDS011;54464;50.558;9.704;2023-09-08T12:02:54;4.40;;;3.70;;
27161;SDS011;54464;50.558;9.704;2023-09-08T12:05:24;6.80;;;3.88;;
27161;SDS011;54464;50.558;9.704;2023-09-08T12:07:52;3.72;;;3.35;;
27161;SDS011;54464;50.558;9.704;2023-09-08T12:10:19;4.22;;;3.80;;
27161;SDS011;54464;50.558;9.704;2023-09-08T12:12:46;4.05;;;3.35;;
27161;SDS011;54464;50.558;9.704;2023-09-08T12:15:36;3.72;;;3.42;;
27161;SDS011;54464;50.558;9.704;2023-09-08T12:18:03;3.95;;;3.13;;
27161;SDS011;54464;50.558;9.704;2023-09-08T12:20:30;3.58;;;3.28;;
27161;SDS011;54464;50.558;9.704;2023-09-08T12:22:59;3.60;;;3.30;;
27161;SDS011;54464;50.558;9.704;2023-09-08T12:25:27;4.20;;;3.13;;
27161;SDS011;54464;50.558;9.704;2023-09-08T12:27:53;3.88;;;2.85;;
27161;SDS011;54464;50.558;9.704;2023-09-08T12:30:22;6.00;;;3.10;;
27161;SDS011;54464;50.558;9.704;2023-09-08T12:32:57;3.92;;;2.90;;
27161;SDS011;54464;50.558;9.704;2023-09-08T12:35:24;3.42;;;3.13;;
27161;SDS011;54464;50.558;9.704;2023-09-08T12:37:53;3.35;;;2.90;;
27161;SDS011;54464;50.558;9.704;2023-09-08T12:40:24;3.25;;;2.85;;
27161;SDS011;54464;50.558;9.704;2023-09-08T12:42:54;3.10;;;2.80;;
27161;SDS011;54464;50.558;9.704;2023-09-08T12:45:20;3.50;;;2.55;;
27161;SDS011;54464;50.558;9.704;2023-09-08T12:47:49;3.70;;;3.10;;
27161;SDS011;54464;50.558;9.704;2023-09-08T12:50:15;3.30;;;3.00;;
27161;SDS011;54464;50.558;9.704;2023-09-08T12:52:41;2.90;;;2.53;;
27161;SDS011;54464;50.558;9.704;2023-09-08T12:55:07;3.22;;;2.60;;
27161;SDS011;54464;50.558;9.704;2023-09-08T12:57:34;2.88;;;2.67;;
27161;SDS011;54464;50.558;9.704;2023-09-08T13:00:00;2.90;;;2.70;;
27161;SDS011;54464;50.558;9.704;2023-09-08T13:02:26;3.00;;;2.70;;
27161;SDS011;54464;50.558;9.704;2023-09-08T13:04:52;3.15;;;2.80;;
27161;SDS011;54464;50.558;9.704;2023-09-08T13:07:18;3.20;;;2.78;;
27161;SDS011;54464;50.558;9.704;2023-09-08T13:09:44;3.70;;;2.95;;
27161;SDS011;54464;50.558;9.704;2023-09-08T13:12:09;3.42;;;3.05;;
27161;SDS011;54464;50.558;9.704;2023-09-08T13:14:37;3.10;;;2.90;;
27161;SDS011;54464;50.558;9.704;2023-09-08T13:17:03;4.47;;;2.72;;
27161;SDS011;54464;50.558;9.704;2023-09-08T13:19:29;3.38;;;3.08;;
27161;SDS011;54464;50.558;9.704;2023-09-08T13:21:54;3.40;;;3.10;;
27161;SDS011;54464;50.558;9.704;2023-09-08T13:24:20;3.85;;;3.00;;
27161;SDS011;54464;50.558;9.704;2023-09-08T13:26:47;3.83;;;3.10;;
27161;SDS011;54464;50.558;9.704;2023-09-08T13:29:12;3.55;;;3.25;;
27161;SDS011;54464;50.558;9.704;2023-09-08T13:31:38;3.53;;;2.90;;
27161;SDS011;54464;50.558;9.704;2023-09-08T13:34:03;4.85;;;3.17;;
27161;SDS011;54464;50.558;9.704;2023-09-08T13:36:30;3.00;;;2.70;;
27161;SDS011;54464;50.558;9.704;2023-09-08T13:38:55;3.20;;;2.90;;
27161;SDS011;54464;50.558;9.704;2023-09-08T13:41:21;4.07;;;2.30;;
27161;SDS011;54464;50.558;9.704;2023-09-08T13:43:47;2.78;;;2.58;;
27161;SDS011;54464;50.558;9.704;2023-09-08T13:46:12;2.65;;;2.45;;
27161;SDS011;54464;50.558;9.704;2023-09-08T13:48:38;4.78;;;3.13;;
27161;SDS011;54464;50.558;9.704;2023-09-08T13:51:04;4.10;;;3.25;;
27161;SDS011;54464;50.558;9.704;2023-09-08T13:53:30;3.50;;;3.20;;
27161;SDS011;54464;50.558;9.704;2023-09-08T13:55:56;3.55;;;3.25;;
27161;SDS011;54464;50.558;9.704;2023-09-08T13:58:21;3.50;;;3.20;;
27161;SDS011;54464;50.558;9.704;2023-09-08T14:00:47;4.18;;;3.78;;
27161;SDS011;54464;50.558;9.704;2023-09-08T14:03:14;4.35;;;3.20;;
27161;SDS011;54464;50.558;9.704;2023-09-08T14:05:40;4.10;;;3.35;;
27161;SDS011;54464;50.558;9.704;2023-09-08T14:08:05;3.25;;;2.95;;
27161;SDS011;54464;50.558;9.704;2023-09-08T14:10:31;3.50;;;3.20;;
27161;SDS011;54464;50.558;9.704;2023-09-08T14:12:56;3.80;;;3.10;;
27161;SDS011;54464;50.558;9.704;2023-09-08T14:15:22;3.40;;;3.10;;
27161;SDS011;54464;50.558;9.704;2023-09-08T14:17:47;4.00;;;3.20;;
27161;SDS011;54464;50.558;9.704;2023-09-08T14:20:13;3.85;;;3.15;;
27161;SDS011;54464;50.558;9.704;2023-09-08T14:22:39;3.63;;;3.08;;
27161;SDS011;54464;50.558;9.704;2023-09-08T14:25:05;3.35;;;3.05;;
27161;SDS011;54464;50.558;9.704;2023-09-08T14:27:31;3.78;;;3.05;;
27161;SDS011;54464;50.558;9.704;2023-09-08T14:29:56;3.95;;;3.35;;
27161;SDS011;54464;50.558;9.704;2023-09-08T14:32:22;3.53;;;3.22;;
27161;SDS011;54464;50.558;9.704;2023-09-08T14:34:48;3.50;;;3.20;;
27161;SDS011;54464;50.558;9.704;2023-09-08T14:37:14;4.78;;;2.97;;
27161;SDS011;54464;50.558;9.704;2023-09-08T14:39:40;4.25;;;3.30;;
27161;SDS011;54464;50.558;9.704;2023-09-08T14:42:05;3.75;;;2.88;;
27161;SDS011;54464;50.558;9.704;2023-09-08T14:44:31;4.82;;;3.00;;
27161;SDS011;54464;50.558;9.704;2023-09-08T14:46:56;3.30;;;3.00;;
27161;SDS011;54464;50.558;9.704;2023-09-08T14:49:22;3.60;;;3.30;;
27161;SDS011;54464;50.558;9.704;2023-09-08T14:51:48;4.25;;;3.10;;
27161;SDS011;54464;50.558;9.704;2023-09-08T14:54:13;3.28;;;2.97;;
27161;SDS011;54464;50.558;9.704;2023-09-08T14:56:39;3.50;;;3.20;;
27161;SDS011;54464;50.558;9.704;2023-09-08T14:59:04;3.08;;;2.83;;
27161;SDS011;54464;50.558;9.704;2023-09-08T15:01:30;4.25;;;3.58;;
27161;SDS011;54464;50.558;9.704;2023-09-08T15:03:55;4.25;;;2.90;;
27161;SDS011;54464;50.558;9.704;2023-09-08T15:06:21;3.38;;;2.88;;
27161;SDS011;54464;50.558;9.704;2023-09-08T15:08:47;3.83;;;2.80;;
27161;SDS011;54464;50.558;9.704;2023-09-08T15:11:13;2.80;;;2.60;;
27161;SDS011;54464;50.558;9.704;2023-09-08T15:13:38;3.95;;;3.03;;
27161;SDS011;54464;50.558;9.704;2023-09-08T15:16:04;3.30;;;3.03;;
27161;SDS011;54464;50.558;9.704;2023-09-08T15:18:30;3.47;;;3.08;;
27161;SDS011;54464;50.558;9.704;2023-09-08T15:20:55;3.20;;;2.90;;